Time;durP1;ratioP1;P1;durP2;ratioP2;P2;SDS_P1;SDS_P2;PMS_P1;PMS_P2;Temp;Humidity;BMP_temperature;BMP_pressure;BME280_temperature;BME280_humidity;BME280_pressure;Samples;Min_cycle;Max_cycle;Signal;HPM_P1;HPM_P2
2023/08/30 00:00:13;;;;;;;5.40;4.20;;;;;;;21.62;75.19;97853.80;221757;182;147641;-61
2023/08/30 00:05:42;;;;;;;7.00;5.00;;;;;;;21.51;75.36;97855.02;221804;182;141787;-61
2023/08/30 00:10:49;;;;;;;8.90;4.70;;;;;;;21.44;75.98;97844.76;221821;182;139573;-61
2023/08/30 00:15:53;;;;;;;7.40;5.30;;;;;;;21.44;76.33;97837.63;221976;181;148986;-61
2023/08/30 00:20:58;;;;;;;7.30;4.60;;;;;;;21.44;76.70;97837.35;221820;182;140440;-62
2023/08/30 00:26:03;;;;;;;6.30;4.80;;;;;;;21.42;77.08;97831.65;221737;181;138838;-60
2023/08/30 00:31:08;;;;;;;5.70;4.70;;;;;;;21.42;76.02;97839.81;221761;181;147437;-62
2023/08/30 00:36:11;;;;;;;7.90;4.20;;;;;;;21.44;76.00;97846.23;221791;182;138921;-61
2023/08/30 00:41:16;;;;;;;5.20;3.70;;;;;;;21.44;75.84;97838.59;221858;181;137310;-61
2023/08/30 00:46:21;;;;;;;6.20;4.10;;;;;;;21.42;75.93;97832.87;221816;181;148476;-65
2023/08/30 00:51:29;;;;;;;4.30;3.40;;;;;;;21.39;76.27;97833.80;221823;181;138977;-61
2023/08/30 00:56:34;;;;;;;5.70;3.10;;;;;;;21.36;76.06;97837.63;221808;181;139081;-61
2023/08/30 01:01:41;;;;;;;5.40;3.20;;;;;;;21.37;76.39;97838.23;221780;182;147604;-61
2023/08/30 01:06:44;;;;;;;5.90;3.70;;;;;;;21.38;75.54;97846.81;221707;182;138898;-62
2023/08/30 01:12:00;;;;;;;4.70;3.60;;;;;;;21.34;75.34;97840.36;221819;182;138074;-61
2023/08/30 01:17:07;;;;;;;6.10;3.80;;;;;;;21.32;75.67;97824.65;221854;180;147332;-61
2023/08/30 01:22:26;;;;;;;4.50;3.70;;;;;;;21.31;76.02;97816.58;221655;182;140372;-62
2023/08/30 01:27:34;;;;;;;5.40;3.50;;;;;;;21.33;76.14;97813.06;221637;183;141188;-63
2023/08/30 01:32:40;;;;;;;4.60;3.60;;;;;;;21.33;75.93;97813.10;221731;182;147621;-63
2023/08/30 01:37:46;;;;;;;5.70;3.90;;;;;;;21.32;75.92;97818.96;221754;182;139469;-62
2023/08/30 01:42:52;;;;;;;6.10;3.70;;;;;;;21.27;75.81;97827.02;221742;181;137348;-62
2023/08/30 01:47:57;;;;;;;5.40;3.40;;;;;;;21.18;75.41;97830.38;221784;182;147369;-62
2023/08/30 01:53:03;;;;;;;4.60;3.50;;;;;;;21.10;75.71;97828.60;221660;182;139131;-62
2023/08/30 01:58:09;;;;;;;6.70;3.70;;;;;;;21.09;76.03;97830.04;221732;182;137911;-63
2023/08/30 02:03:14;;;;;;;;;;;;;;;21.11;76.05;97825.86;221762;182;147796;-64
2023/08/30 02:08:21;;;;;;;4.00;3.60;;;;;;;21.11;76.11;97826.15;221787;181;140433;-62
2023/08/30 02:13:30;;;;;;;4.00;3.30;;;;;;;21.08;76.28;97833.19;221943;181;137834;-63
2023/08/30 02:18:35;;;;;;;4.60;3.40;;;;;;;21.02;76.70;97834.96;221835;182;147622;-61
2023/08/30 02:23:39;;;;;;;6.40;3.30;;;;;;;20.98;76.51;97836.37;221809;181;138874;-64
2023/08/30 02:28:44;;;;;;;4.60;3.30;;;;;;;21.00;76.77;97828.58;221759;182;138407;-62
2023/08/30 02:33:48;;;;;;;;;;;;;;;21.01;76.87;97817.23;221681;181;147261;-63
2023/08/30 02:38:54;;;;;;;5.20;3.70;;;;;;;20.98;76.96;97816.86;221786;181;138702;-63
2023/08/30 02:43:58;;;;;;;4.40;3.30;;;;;;;20.90;77.50;97812.73;221815;183;138182;-61
2023/08/30 02:49:05;;;;;;;3.40;2.90;;;;;;;20.87;77.80;97807.83;221899;182;147684;-61
2023/08/30 02:54:08;;;;;;;5.20;3.20;;;;;;;20.88;77.92;97803.09;221807;183;138920;-64
2023/08/30 02:59:12;;;;;;;4.10;3.70;;;;;;;20.88;78.18;97804.30;221859;182;137224;-63
2023/08/30 03:04:20;;;;;;;4.10;3.70;;;;;;;20.86;78.22;97804.73;221779;182;148855;-63
2023/08/30 03:09:25;;;;;;;4.70;4.00;;;;;;;20.82;78.30;97795.09;221721;182;138858;-62
2023/08/30 03:14:31;;;;;;;4.70;3.70;;;;;;;20.79;78.60;97788.41;221796;180;137857;-62
2023/08/30 03:19:35;;;;;;;;;;;;;;;20.83;78.53;97788.92;221776;182;147781;-62
2023/08/30 03:24:40;;;;;;;4.70;4.00;;;;;;;20.84;78.48;97794.92;221752;182;139020;-61
2023/08/30 03:29:45;;;;;;;6.10;4.90;;;;;;;20.80;78.66;97807.96;221709;182;137268;-62
2023/08/30 03:34:49;;;;;;;6.30;4.40;;;;;;;20.76;78.21;97809.61;221780;182;148154;-61
2023/08/30 03:39:54;;;;;;;4.90;4.20;;;;;;;20.69;78.13;97808.79;221789;182;139146;-62
2023/08/30 03:44:59;;;;;;;6.00;4.70;;;;;;;20.65;78.40;97817.26;221672;182;138018;-63
2023/08/30 03:50:07;;;;;;;5.60;5.00;;;;;;;20.64;78.24;97809.30;221790;182;147373;-60
2023/08/30 03:55:10;;;;;;;6.20;5.60;;;;;;;20.66;78.83;97797.18;221678;182;139940;-62
2023/08/30 04:00:16;;;;;;;6.40;5.10;;;;;;;20.64;78.92;97803.89;221776;178;137520;-61
2023/08/30 04:05:20;;;;;;;5.80;5.10;;;;;;;20.61;78.50;97817.63;221664;183;147666;-61
2023/08/30 04:10:24;;;;;;;6.10;4.80;;;;;;;20.58;78.74;97822.65;221697;182;139806;-63
2023/08/30 04:15:34;;;;;;;8.20;5.90;;;;;;;20.58;78.97;97827.48;221747;182;138224;-62
2023/08/30 04:20:44;;;;;;;5.90;5.30;;;;;;;20.57;79.12;97824.73;221691;181;147827;-63
2023/08/30 04:25:50;;;;;;;6.40;5.10;;;;;;;20.57;79.09;97820.45;221688;182;140315;-63
2023/08/30 04:30:56;;;;;;;7.40;5.00;;;;;;;20.54;79.02;97816.21;221772;183;137908;-62
2023/08/30 04:36:03;;;;;;;6.10;5.20;;;;;;;20.55;79.05;97822.22;221712;183;147560;-61
2023/08/30 04:41:08;;;;;;;6.80;6.10;;;;;;;20.61;78.97;97826.98;221694;183;139399;-62
2023/08/30 04:46:12;;;;;;;7.40;6.00;;;;;;;20.64;78.97;97831.89;221619;182;137134;-61
2023/08/30 04:51:17;;;;;;;8.80;5.80;;;;;;;20.64;78.92;97826.81;221784;182;148162;-61
2023/08/30 04:56:23;;;;;;;5.90;4.80;;;;;;;20.63;78.88;97822.19;221743;178;140396;-61
2023/08/30 05:01:31;;;;;;;6.80;5.20;;;;;;;20.65;79.05;97819.80;221705;179;137555;-61
2023/08/30 05:06:36;;;;;;;6.90;5.10;;;;;;;20.66;78.94;97816.65;221790;183;147274;-62
2023/08/30 05:11:41;;;;;;;9.10;5.80;;;;;;;20.68;78.66;97810.90;221779;182;139069;-62
2023/08/30 05:16:46;;;;;;;8.30;5.00;;;;;;;20.73;78.91;97813.98;221733;182;137341;-62
2023/08/30 05:21:55;;;;;;;5.60;4.90;;;;;;;20.79;78.66;97823.09;221730;181;147983;-62
2023/08/30 05:27:00;;;;;;;16.00;11.60;;;;;;;20.85;78.55;97826.32;221738;182;138626;-63
2023/08/30 05:32:14;;;;;;;10.90;5.90;;;;;;;20.94;78.80;97826.50;221637;182;138361;-63
2023/08/30 05:37:37;;;;;;;8.00;5.60;;;;;;;20.98;78.32;97827.21;221696;182;148471;-61
2023/08/30 05:42:55;;;;;;;7.20;4.70;;;;;;;21.01;78.08;97833.70;221636;179;140560;-62
2023/08/30 05:47:59;;;;;;;7.90;4.80;;;;;;;20.98;78.15;97833.02;221748;182;139255;-63
2023/08/30 05:53:06;;;;;;;7.40;5.30;;;;;;;21.00;77.94;97840.19;221591;183;147757;-62
2023/08/30 05:58:10;;;;;;;8.80;5.40;;;;;;;21.01;77.54;97845.05;221724;179;138682;-60
2023/08/30 06:03:16;;;;;;;5.90;5.30;;;;;;;21.01;77.25;97849.69;221767;183;137381;-61
2023/08/30 06:08:22;;;;;;;10.40;5.10;;;;;;;21.01;77.26;97851.55;221754;182;147838;-64
2023/08/30 06:13:27;;;;;;;6.10;4.70;;;;;;;20.97;77.20;97851.13;221710;181;140381;-62
2023/08/30 06:18:33;;;;;;;7.30;5.60;;;;;;;20.96;77.36;97849.64;221757;182;138189;-62
2023/08/30 06:23:38;;;;;;;8.20;5.60;;;;;;;20.96;77.35;97853.83;221852;181;147811;-63
2023/08/30 06:28:43;;;;;;;6.00;5.40;;;;;;;20.98;77.59;97856.89;221722;182;139001;-62
2023/08/30 06:34:05;;;;;;;8.40;6.00;;;;;;;20.99;77.71;97856.86;221850;181;137935;-61
2023/08/30 06:39:10;;;;;;;9.30;5.60;;;;;;;20.99;77.73;97859.59;221806;182;147761;-63
2023/08/30 06:44:16;;;;;;;8.90;6.20;;;;;;;21.00;77.58;97866.57;221732;181;139655;-62
2023/08/30 06:49:21;;;;;;;6.90;6.30;;;;;;;21.01;77.41;97861.83;221799;181;137632;-63
2023/08/30 06:54:26;;;;;;;10.40;6.80;;;;;;;21.05;77.27;97868.77;221863;179;147343;-62
2023/08/30 06:59:30;;;;;;;8.30;5.80;;;;;;;21.01;76.88;97872.25;221687;182;139105;-62
2023/08/30 07:04:35;;;;;;;10.60;6.40;;;;;;;21.00;77.48;97873.52;221683;182;137874;-63
2023/08/30 07:09:41;;;;;;;12.50;6.30;;;;;;;21.06;77.30;97881.45;221853;182;147219;-62
2023/08/30 07:14:47;;;;;;;10.20;6.20;;;;;;;21.10;77.36;97888.91;221748;182;138799;-61
2023/08/30 07:19:52;;;;;;;10.60;5.90;;;;;;;21.16;76.93;97892.50;221652;182;140238;-62
2023/08/30 07:24:56;;;;;;;12.10;6.70;;;;;;;21.17;76.71;97892.44;221821;181;148817;-62
2023/08/30 07:30:01;;;;;;;12.30;7.20;;;;;;;21.23;76.95;97896.80;221792;181;275971;-62
2023/08/30 07:35:06;;;;;;;9.10;5.50;;;;;;;21.26;77.08;97900.61;221751;178;141071;-61
2023/08/30 07:40:12;;;;;;;9.60;6.00;;;;;;;21.28;76.63;97908.10;221684;181;147709;-62
2023/08/30 07:45:15;;;;;;;8.30;6.10;;;;;;;21.32;76.54;97900.94;221748;182;140501;-62
2023/08/30 07:50:20;;;;;;;12.40;6.50;;;;;;;21.36;76.17;97909.16;221874;181;140411;-62
2023/08/30 07:55:24;;;;;;;8.60;6.30;;;;;;;21.34;75.87;97916.93;221848;182;149210;-62
2023/08/30 08:00:30;;;;;;;11.40;7.30;;;;;;;21.32;75.94;97919.90;221802;181;139021;-63
2023/08/30 08:05:36;;;;;;;14.30;7.30;;;;;;;21.25;75.80;97923.61;221847;181;137258;-61
2023/08/30 08:10:39;;;;;;;16.00;9.60;;;;;;;21.22;76.11;97916.81;221759;181;148550;-64
2023/08/30 08:15:44;;;;;;;17.10;10.50;;;;;;;21.21;76.34;97914.55;221770;181;138651;-64
2023/08/30 08:20:49;;;;;;;15.50;11.40;;;;;;;21.20;76.09;97921.16;221918;179;137926;-63
2023/08/30 08:26:02;;;;;;;17.50;12.40;;;;;;;21.14;75.82;97922.42;221842;182;147254;-62
2023/08/30 08:31:08;;;;;;;;;;;;;;;21.08;76.03;97921.94;221838;181;140518;-63
2023/08/30 08:36:12;;;;;;;20.30;12.40;;;;;;;21.02;76.18;97923.77;221928;181;133364;-63
2023/08/30 08:41:17;;;;;;;17.40;12.20;;;;;;;20.97;76.57;97923.30;221882;177;148134;-62
2023/08/30 08:46:23;;;;;;;14.60;10.00;;;;;;;20.98;76.91;97924.36;221768;181;140182;-61
2023/08/30 08:51:29;;;;;;;17.20;10.60;;;;;;;21.00;76.61;97923.22;221866;181;137490;-62
2023/08/30 08:56:34;;;;;;;13.90;10.30;;;;;;;21.07;76.34;97922.25;221826;182;147680;-62
2023/08/30 09:01:39;;;;;;;18.20;9.60;;;;;;;21.13;76.28;97918.33;221800;181;138744;-62
2023/08/30 09:06:45;;;;;;;12.80;9.00;;;;;;;21.09;76.10;97924.15;221799;181;139634;-62
2023/08/30 09:11:49;;;;;;;12.10;8.10;;;;;;;21.05;76.01;97920.11;221734;181;147736;-62
2023/08/30 09:16:56;;;;;;;13.50;8.40;;;;;;;21.05;76.32;97917.48;221742;181;138952;-63
2023/08/30 09:22:00;;;;;;;10.30;7.70;;;;;;;21.15;76.47;97925.46;221920;181;138117;-63
2023/08/30 09:27:07;;;;;;;11.60;7.40;;;;;;;21.21;75.69;97928.41;221716;181;147682;-63
2023/08/30 09:32:11;;;;;;;11.90;7.10;;;;;;;21.24;75.46;97930.16;221839;181;140787;-62
2023/08/30 09:37:23;;;;;;;11.40;6.10;;;;;;;21.32;75.15;97925.64;221787;182;138264;-62
2023/08/30 09:42:28;;;;;;;6.60;5.20;;;;;;;21.34;74.88;97921.50;221842;182;147691;-61
2023/08/30 09:47:32;;;;;;;;;;;;;;;21.38;74.71;97926.89;221766;182;140562;-61
2023/08/30 09:52:38;;;;;;;;;;;;;;;21.39;74.04;97931.81;221892;182;133063;-61
2023/08/30 09:57:43;;;;;;;5.90;4.50;;;;;;;21.46;73.91;97929.73;221899;182;147637;-62
2023/08/30 10:02:48;;;;;;;5.70;4.40;;;;;;;21.56;73.53;97930.96;221796;182;138589;-61
2023/08/30 10:08:18;;;;;;;6.90;4.70;;;;;;;21.60;72.93;97930.42;221849;182;140182;-63
2023/08/30 10:13:24;;;;;;;7.70;4.70;;;;;;;21.69;72.46;97923.69;221863;182;149340;-61
2023/08/30 10:18:32;;;;;;;5.50;4.50;;;;;;;21.87;72.03;97924.76;221787;182;139123;-61
2023/08/30 10:23:37;;;;;;;9.10;4.80;;;;;;;21.97;71.03;97928.94;221840;182;138031;-63
2023/08/30 10:28:44;;;;;;;5.90;4.70;;;;;;;22.04;71.16;97935.00;221794;182;147456;-64
2023/08/30 10:33:50;;;;;;;6.10;4.50;;;;;;;22.00;70.97;97939.34;221789;181;138890;-63
2023/08/30 10:38:54;;;;;;;5.90;4.90;;;;;;;21.95;70.50;97941.76;221781;181;137287;-62
2023/08/30 10:44:03;;;;;;;7.90;4.70;;;;;;;21.91;70.20;97940.82;221789;181;148020;-62
2023/08/30 10:49:14;;;;;;;6.70;5.40;;;;;;;22.00;70.23;97936.38;221826;181;138726;-61
2023/08/30 10:54:17;;;;;;;8.80;5.70;;;;;;;22.16;69.53;97932.54;221852;181;138423;-63
2023/08/30 10:59:24;;;;;;;7.70;5.90;;;;;;;22.23;68.80;97937.52;221794;181;147894;-62
2023/08/30 11:04:28;;;;;;;7.70;5.90;;;;;;;22.20;68.62;97934.41;221817;182;138833;-63
2023/08/30 11:09:35;;;;;;;7.30;6.10;;;;;;;22.16;68.79;97921.58;221867;181;137615;-61
2023/08/30 11:14:41;;;;;;;7.70;6.00;;;;;;;22.03;69.30;97918.02;221837;181;148595;-63
2023/08/30 11:19:49;;;;;;;5.70;4.90;;;;;;;21.97;70.15;97914.92;221752;181;139049;-61
2023/08/30 11:24:54;;;;;;;6.50;5.30;;;;;;;22.12;70.86;97906.39;221895;182;139063;-62
2023/08/30 11:30:05;;;;;;;9.00;5.60;;;;;;;22.26;70.20;97909.61;221709;181;147627;-62
2023/08/30 11:35:09;;;;;;;6.60;5.40;;;;;;;22.54;69.51;97910.59;221719;181;142500;-63
2023/08/30 11:40:16;;;;;;;8.90;5.90;;;;;;;22.76;68.59;97910.20;221784;179;137198;-64
2023/08/30 11:45:21;;;;;;;6.40;5.50;;;;;;;22.75;68.00;97910.00;221849;181;147707;-62
2023/08/30 11:50:26;;;;;;;7.80;5.90;;;;;;;22.75;68.09;97910.46;221712;181;140929;-62
2023/08/30 11:55:43;;;;;;;7.60;5.80;;;;;;;22.74;67.72;97912.41;221867;182;140074;-62
2023/08/30 12:00:51;;;;;;;8.50;5.70;;;;;;;22.76;67.63;97917.31;221755;181;148599;-62
2023/08/30 12:05:57;;;;;;;9.20;5.90;;;;;;;22.72;67.26;97916.88;221807;179;140052;-62
2023/08/30 12:11:04;;;;;;;8.30;5.80;;;;;;;22.67;66.98;97913.77;221800;182;137384;-63
2023/08/30 12:16:07;;;;;;;6.80;6.10;;;;;;;22.63;66.83;97913.56;221700;182;148235;-62
2023/08/30 12:21:15;;;;;;;8.20;6.40;;;;;;;22.51;66.82;97908.55;221816;181;139291;-63
2023/08/30 12:26:18;;;;;;;9.10;7.10;;;;;;;22.40;67.39;97906.58;221912;181;137192;-63
2023/08/30 12:31:23;;;;;;;10.30;7.70;;;;;;;22.30;67.53;97917.65;221784;181;147322;-62
2023/08/30 12:36:27;;;;;;;7.80;6.90;;;;;;;22.21;67.79;97914.95;221760;182;139864;-65
2023/08/30 12:41:32;;;;;;;8.50;7.10;;;;;;;22.14;67.94;97906.78;221778;181;138427;-62
2023/08/30 12:46:37;;;;;;;11.90;8.10;;;;;;;22.06;67.65;97925.21;221815;181;147329;-62
2023/08/30 12:51:42;;;;;;;12.00;9.10;;;;;;;21.96;67.92;97916.67;221803;182;138935;-62
2023/08/30 12:56:47;;;;;;;14.60;10.40;;;;;;;21.88;68.90;97912.08;221847;181;138214;-65
2023/08/30 13:01:51;;;;;;;17.00;12.20;;;;;;;21.72;69.45;97910.75;221852;181;147353;-63
2023/08/30 13:06:57;;;;;;;14.10;10.20;;;;;;;21.61;70.46;97922.09;221861;181;138863;-63
2023/08/30 13:12:03;;;;;;;14.60;9.70;;;;;;;21.51;70.79;97928.16;221702;181;137962;-62
2023/08/30 13:17:07;;;;;;;13.60;10.40;;;;;;;21.40;71.36;97931.66;221762;181;147295;-62
2023/08/30 13:22:10;;;;;;;13.60;11.10;;;;;;;21.40;72.18;97928.26;221697;182;138499;-63
2023/08/30 13:27:16;;;;;;;15.30;12.00;;;;;;;21.34;72.08;97942.23;221762;181;137936;-62
2023/08/30 13:32:21;;;;;;;16.60;12.20;;;;;;;21.29;72.89;97952.11;221772;182;147827;-62
2023/08/30 13:37:25;;;;;;;16.00;12.20;;;;;;;21.28;72.77;97945.77;221756;182;138876;-63
2023/08/30 13:42:33;;;;;;;14.80;11.60;;;;;;;21.27;72.93;97947.48;221747;181;139714;-63
2023/08/30 13:47:40;;;;;;;14.80;11.60;;;;;;;21.32;71.51;97944.42;221763;182;148482;-64
2023/08/30 13:52:45;;;;;;;16.60;13.20;;;;;;;21.26;71.15;97946.50;221689;182;140291;-63
2023/08/30 13:57:50;;;;;;;16.90;13.80;;;;;;;21.25;71.04;97946.70;221833;181;138708;-63
2023/08/30 14:02:54;;;;;;;17.60;13.20;;;;;;;21.22;71.06;97940.38;221784;182;147582;-63
2023/08/30 14:07:59;;;;;;;14.80;11.20;;;;;;;21.16;70.44;97926.40;221846;181;139318;-63
2023/08/30 14:13:05;;;;;;;13.50;11.30;;;;;;;21.24;70.51;97908.22;221858;181;138660;-61
2023/08/30 14:18:08;;;;;;;16.60;11.20;;;;;;;21.66;70.35;97899.90;221853;181;147285;-62
2023/08/30 14:23:13;;;;;;;14.80;10.90;;;;;;;21.83;69.24;97895.93;221718;181;139123;-63
2023/08/30 14:28:20;;;;;;;14.20;10.30;;;;;;;21.76;68.40;97897.38;221699;181;137873;-64
2023/08/30 14:33:26;;;;;;;12.70;9.10;;;;;;;21.58;68.31;97912.08;221915;181;148557;-62
2023/08/30 14:38:31;;;;;;;14.70;9.10;;;;;;;21.43;68.53;97930.58;221735;182;140062;-63
2023/08/30 14:43:36;;;;;;;12.30;9.90;;;;;;;21.43;68.76;97937.08;221816;183;137657;-63
2023/08/30 14:48:42;;;;;;;13.10;8.70;;;;;;;21.46;68.69;97949.88;221912;181;147670;-63
2023/08/30 14:53:47;;;;;;;15.00;9.20;;;;;;;21.51;68.54;97966.64;221743;179;138957;-64
2023/08/30 14:58:53;;;;;;;11.70;8.60;;;;;;;21.55;68.04;97981.77;221940;181;138121;-64
2023/08/30 15:03:58;;;;;;;13.10;8.20;;;;;;;21.56;67.40;97980.64;221694;181;147752;-63
2023/08/30 15:09:04;;;;;;;12.50;7.80;;;;;;;21.60;67.05;97980.12;221756;181;141579;-61
2023/08/30 15:14:08;;;;;;;10.60;7.40;;;;;;;21.65;67.06;97984.41;221754;181;138096;-62
2023/08/30 15:19:12;;;;;;;8.90;6.60;;;;;;;21.70;67.19;97984.40;221990;181;147670;-62
2023/08/30 15:24:17;;;;;;;9.60;7.00;;;;;;;21.70;66.04;97988.73;221843;181;141673;-62
2023/08/30 15:29:22;;;;;;;11.70;7.70;;;;;;;21.63;65.92;97981.06;221761;181;137646;-62
2023/08/30 15:34:26;;;;;;;11.30;7.70;;;;;;;21.54;65.90;97993.00;221868;181;148013;-63
2023/08/30 15:39:31;;;;;;;11.10;8.10;;;;;;;21.48;66.21;98001.39;221784;182;140532;-61
2023/08/30 15:44:37;;;;;;;9.30;6.70;;;;;;;21.39;66.42;97999.83;221837;181;137228;-62
2023/08/30 15:49:42;;;;;;;12.70;6.50;;;;;;;21.29;66.79;98003.08;221825;182;147546;-62
2023/08/30 15:54:46;;;;;;;7.70;5.90;;;;;;;21.19;67.24;97995.99;221722;178;139815;-62
2023/08/30 15:59:51;;;;;;;;;;;;;;;21.11;67.57;97997.64;221762;181;138595;-62
2023/08/30 16:04:56;;;;;;;10.50;7.20;;;;;;;21.06;67.70;98001.36;221887;181;148146;-62
2023/08/30 16:10:01;;;;;;;13.70;8.10;;;;;;;21.06;68.14;98004.48;221726;182;139037;-63
2023/08/30 16:15:07;;;;;;;11.20;7.60;;;;;;;21.03;68.27;98008.20;221912;181;138121;-64
2023/08/30 16:20:11;;;;;;;10.60;7.50;;;;;;;20.90;68.24;98005.98;221850;181;147381;-63
2023/08/30 16:25:14;;;;;;;12.70;6.90;;;;;;;20.77;68.70;98010.98;221798;181;138650;-62
2023/08/30 16:30:19;;;;;;;11.10;6.90;;;;;;;20.65;69.15;98014.13;221767;181;138218;-63
2023/08/30 16:35:25;;;;;;;;;;;;;;;20.52;69.66;98025.81;221742;183;147241;-62
2023/08/30 16:40:31;;;;;;;10.90;6.30;;;;;;;20.47;70.05;98028.63;221850;181;141105;-62
2023/08/30 16:45:39;;;;;;;11.60;6.70;;;;;;;20.46;70.56;98040.33;221761;181;138120;-62
2023/08/30 16:50:43;;;;;;;14.00;7.20;;;;;;;20.44;70.73;98043.80;221798;181;147504;-62
2023/08/30 16:55:49;;;;;;;10.10;7.00;;;;;;;20.41;70.55;98048.47;221880;181;140861;-63
2023/08/30 17:00:53;;;;;;;13.20;7.30;;;;;;;20.27;70.82;98050.98;221775;182;137896;-61
2023/08/30 17:06:02;;;;;;;12.20;7.70;;;;;;;20.14;71.20;98053.23;221841;182;147681;-64
2023/08/30 17:11:09;;;;;;;11.50;6.70;;;;;;;20.03;72.26;98052.79;221918;182;141692;-61
2023/08/30 17:16:13;;;;;;;9.00;6.30;;;;;;;19.96;72.79;98054.83;221783;182;138844;-62
2023/08/30 17:21:19;;;;;;;10.80;7.10;;;;;;;19.91;73.25;98057.92;221737;182;147319;-63
2023/08/30 17:26:24;;;;;;;9.50;7.20;;;;;;;19.96;73.60;98052.65;221809;179;138863;-62
2023/08/30 17:31:32;;;;;;;12.40;7.30;;;;;;;20.08;73.38;98049.10;221847;182;137081;-61
2023/08/30 17:36:36;;;;;;;13.90;7.90;;;;;;;20.08;73.33;98040.79;221802;182;147765;-63
2023/08/30 17:41:42;;;;;;;11.40;7.70;;;;;;;20.06;73.14;98043.25;221664;182;139035;-62
2023/08/30 17:46:47;;;;;;;13.30;8.00;;;;;;;20.01;72.90;98045.93;221956;181;138704;-61
2023/08/30 17:51:52;;;;;;;14.30;6.50;;;;;;;19.97;72.82;98046.74;221841;181;148045;-63
2023/08/30 17:56:56;;;;;;;9.90;6.90;;;;;;;19.98;72.69;98050.11;221783;182;141534;-61
2023/08/30 18:02:02;;;;;;;13.90;8.10;;;;;;;19.85;72.49;98058.60;221977;181;137433;-63
2023/08/30 18:07:06;;;;;;;;;;;;;;;19.70;72.89;98061.33;221965;181;147723;-62
2023/08/30 18:12:09;;;;;;;13.90;7.70;;;;;;;19.60;73.18;98069.41;221821;181;138837;-62
2023/08/30 18:17:16;;;;;;;;;;;;;;;19.53;73.82;98078.67;221782;181;138044;-62
2023/08/30 18:22:22;;;;;;;14.80;8.00;;;;;;;19.50;74.13;98083.19;221848;181;149076;-62
2023/08/30 18:27:26;;;;;;;14.50;8.10;;;;;;;19.48;74.19;98085.17;221740;181;138758;-61
2023/08/30 18:32:34;;;;;;;13.10;7.40;;;;;;;19.48;74.04;98089.25;221941;182;137035;-62
2023/08/30 18:37:38;;;;;;;10.40;6.30;;;;;;;19.46;74.06;98091.66;221779;181;147749;-63
2023/08/30 18:42:43;;;;;;;11.70;6.30;;;;;;;19.46;74.14;98081.82;221771;181;138511;-64
2023/08/30 18:47:48;;;;;;;14.20;7.00;;;;;;;19.46;74.37;98087.77;221861;180;138087;-63
2023/08/30 18:52:53;;;;;;;9.60;7.10;;;;;;;19.41;74.79;98092.10;221685;181;147693;-64
2023/08/30 18:57:57;;;;;;;3.70;3.00;;;;;;;19.36;74.83;98091.10;221697;182;140243;-63
2023/08/30 19:03:04;;;;;;;4.80;3.00;;;;;;;19.26;75.19;98090.22;221842;181;137069;-62
2023/08/30 19:08:09;;;;;;;4.60;2.90;;;;;;;19.14;75.34;98091.40;221911;181;147467;-61
2023/08/30 19:13:13;;;;;;;3.50;2.40;;;;;;;19.07;75.66;98092.04;221702;182;139300;-63
2023/08/30 19:18:17;;;;;;;5.30;2.40;;;;;;;19.03;75.67;98090.75;221884;181;139226;-62
2023/08/30 19:23:21;;;;;;;3.70;2.70;;;;;;;19.05;75.67;98095.67;221869;181;148169;-62
2023/08/30 19:28:27;;;;;;;8.90;2.70;;;;;;;19.04;75.46;98095.04;221696;182;139494;-62
2023/08/30 19:33:34;;;;;;;4.60;2.50;;;;;;;19.02;75.33;98099.16;221757;182;138933;-62
2023/08/30 19:38:38;;;;;;;3.70;2.10;;;;;;;18.98;75.20;98101.97;221956;183;148208;-62
2023/08/30 19:43:43;;;;;;;3.00;1.70;;;;;;;18.95;75.35;98101.21;221835;181;139881;-61
2023/08/30 19:48:50;;;;;;;3.60;2.10;;;;;;;18.98;75.20;98111.38;221748;182;140280;-64
2023/08/30 19:53:56;;;;;;;2.50;1.80;;;;;;;19.03;75.02;98117.09;221711;181;147687;-63
2023/08/30 19:59:05;;;;;;;3.00;1.80;;;;;;;19.04;75.02;98118.98;221668;182;141862;-60
2023/08/30 20:04:14;;;;;;;3.20;1.60;;;;;;;19.04;74.90;98124.43;221881;181;138121;-63
2023/08/30 20:09:23;;;;;;;3.40;2.20;;;;;;;18.97;74.76;98132.27;221744;181;147742;-63
2023/08/30 20:14:27;;;;;;;4.10;2.80;;;;;;;18.94;74.60;98132.77;221770;183;138958;-62
2023/08/30 20:19:31;;;;;;;4.40;3.00;;;;;;;18.97;74.39;98141.33;221755;180;138219;-63
2023/08/30 20:24:37;;;;;;;;;;;;;;;18.95;74.31;98141.49;221660;181;147357;-63
2023/08/30 20:29:42;;;;;;;5.80;4.40;;;;;;;18.96;74.31;98141.58;221834;182;139092;-63
2023/08/30 20:34:48;;;;;;;5.20;4.40;;;;;;;18.95;74.00;98147.63;221813;181;137761;-62
2023/08/30 20:39:53;;;;;;;8.70;4.40;;;;;;;18.88;74.03;98147.50;221726;182;147524;-63
2023/08/30 20:44:59;;;;;;;6.30;5.10;;;;;;;18.85;73.95;98154.43;221784;181;139580;-62
2023/08/30 20:50:07;;;;;;;5.30;4.60;;;;;;;18.86;73.99;98152.79;221957;181;137760;-64
2023/08/30 20:55:10;;;;;;;;;;;;;;;18.82;73.93;98153.57;221790;181;147280;-64
2023/08/30 21:00:14;;;;;;;7.50;5.10;;;;;;;18.79;73.88;98158.93;221794;181;139911;-64
2023/08/30 21:05:19;;;;;;;7.60;6.20;;;;;;;18.74;73.96;98159.68;221662;181;137761;-64
2023/08/30 21:10:25;;;;;;;9.20;5.50;;;;;;;18.70;73.98;98161.16;221771;181;147655;-64
2023/08/30 21:15:31;;;;;;;6.70;5.40;;;;;;;18.68;74.09;98171.41;221728;181;138702;-61
2023/08/30 21:20:35;;;;;;;;;;;;;;;18.69;73.99;98173.60;221786;181;138315;-63
2023/08/30 21:25:43;;;;;;;10.10;7.20;;;;;;;18.74;73.94;98177.10;221824;181;147713;-63
2023/08/30 21:30:46;;;;;;;10.60;8.30;;;;;;;18.73;73.98;98182.73;221830;182;140300;-61
2023/08/30 21:35:52;;;;;;;10.80;8.80;;;;;;;18.68;73.89;98182.69;221732;182;140888;-62
2023/08/30 21:40:58;;;;;;;9.20;8.20;;;;;;;18.66;74.27;98187.61;221755;181;147461;-62
2023/08/30 21:46:05;;;;;;;10.20;8.10;;;;;;;18.64;74.14;98192.15;221735;181;139475;-61
2023/08/30 21:51:09;;;;;;;11.00;8.80;;;;;;;18.62;74.22;98196.80;221832;182;138839;-62
2023/08/30 21:56:15;;;;;;;12.00;10.30;;;;;;;18.60;74.21;98195.15;221734;182;148718;-61
2023/08/30 22:01:18;;;;;;;;;;;;;;;18.56;74.46;98191.20;221652;181;139033;-64
2023/08/30 22:06:23;;;;;;;11.70;10.50;;;;;;;18.55;74.31;98186.83;221845;179;132982;-62
2023/08/30 22:11:28;;;;;;;14.90;11.50;;;;;;;18.50;74.48;98188.88;221743;182;147639;-62
2023/08/30 22:16:33;;;;;;;12.20;10.50;;;;;;;18.44;74.69;98191.20;221615;182;139159;-63
2023/08/30 22:21:38;;;;;;;12.50;10.30;;;;;;;18.43;74.55;98192.05;221738;182;138659;-62
2023/08/30 22:26:41;;;;;;;12.80;9.90;;;;;;;18.48;74.84;98202.36;221805;182;148536;-62
2023/08/30 22:31:46;;;;;;;13.90;11.30;;;;;;;18.55;74.70;98209.33;221793;181;140595;-62
2023/08/30 22:36:51;;;;;;;15.80;12.20;;;;;;;18.61;74.49;98211.66;221776;182;137653;-62
2023/08/30 22:41:56;;;;;;;15.50;12.00;;;;;;;18.62;74.34;98210.98;221695;182;149207;-62
2023/08/30 22:47:02;;;;;;;13.80;11.20;;;;;;;18.60;74.06;98217.24;221849;181;138944;-62
2023/08/30 22:52:08;;;;;;;14.70;10.50;;;;;;;18.55;74.00;98220.05;221742;182;138600;-61
2023/08/30 22:57:11;;;;;;;13.90;10.50;;;;;;;18.57;74.06;98215.55;221762;182;147800;-63
2023/08/30 23:02:15;;;;;;;14.80;10.90;;;;;;;18.55;73.81;98213.05;221678;181;139135;-63
2023/08/30 23:07:20;;;;;;;;;;;;;;;18.52;73.55;98213.73;221767;182;142452;-64
2023/08/30 23:12:26;;;;;;;16.70;11.30;;;;;;;18.54;73.35;98211.23;221824;182;147661;-60
2023/08/30 23:17:43;;;;;;;12.70;10.40;;;;;;;18.51;73.14;98205.79;221720;179;139287;-63
2023/08/30 23:22:48;;;;;;;13.90;10.60;;;;;;;18.48;73.29;98199.11;221831;181;140045;-64
2023/08/30 23:27:52;;;;;;;13.20;9.60;;;;;;;18.45;73.31;98189.00;221701;182;147392;-62
2023/08/30 23:32:57;;;;;;;12.80;9.40;;;;;;;18.43;73.26;98189.19;221791;182;140718;-64
2023/08/30 23:38:02;;;;;;;12.20;9.20;;;;;;;18.46;73.31;98194.09;221647;182;141111;-64